createdAt,value
2018-05-17T00:01:06.586Z,10.67
2018-05-17T00:03:34.843Z,11.00
2018-05-17T00:06:02.319Z,11.63
2018-05-17T00:08:30.798Z,12.33
2018-05-17T00:10:59.064Z,10.17
2018-05-17T00:13:26.537Z,8.33
2018-05-17T00:15:54.789Z,8.33
2018-05-17T00:18:23.112Z,6.23
2018-05-17T00:20:50.593Z,13.40
2018-05-17T00:23:18.078Z,11.63
2018-05-17T00:25:45.550Z,12.80
2018-05-17T00:28:13.886Z,12.80
2018-05-17T00:30:41.617Z,13.53
2018-05-17T00:33:09.090Z,13.13
2018-05-17T00:35:36.573Z,13.60
2018-05-17T00:38:04.068Z,9.93
2018-05-17T00:40:32.323Z,11.13
2018-05-17T00:42:59.811Z,9.23
2018-05-17T00:45:28.049Z,14.50
2018-05-17T00:47:55.530Z,10.10
2018-05-17T00:50:23.769Z,9.03
2018-05-17T00:53:03.089Z,14.53
2018-05-17T00:55:30.742Z,7.03
2018-05-17T00:57:58.225Z,13.23
2018-05-17T01:00:25.728Z,12.83
2018-05-17T01:02:54.159Z,11.10
2018-05-17T01:05:21.681Z,11.03
2018-05-17T01:07:49.171Z,10.63
2018-05-17T01:10:16.640Z,14.27
2018-05-17T01:12:44.206Z,11.93
2018-05-17T01:15:11.708Z,13.03
2018-05-17T01:17:39.930Z,9.27
2018-05-17T01:20:07.426Z,12.47
2018-05-17T01:22:35.701Z,15.20
2018-05-17T01:25:03.935Z,15.97
2018-05-17T01:27:31.420Z,13.93
2018-05-17T01:29:59.515Z,15.27
2018-05-17T01:32:27.762Z,12.47
2018-05-17T01:34:56.014Z,12.20
2018-05-17T01:37:35.328Z,17.13
2018-05-17T01:40:02.805Z,16.67
2018-05-17T01:42:30.300Z,10.73
2018-05-17T01:44:57.857Z,17.27
2018-05-17T01:47:26.118Z,19.07
2018-05-17T01:49:53.709Z,20.77
2018-05-17T01:52:21.948Z,19.23
2018-05-17T01:54:49.433Z,17.57
2018-05-17T01:57:17.827Z,19.70
2018-05-17T01:59:46.055Z,22.43
2018-05-17T02:02:13.538Z,11.20
2018-05-17T02:04:41.092Z,21.47
2018-05-17T02:07:08.581Z,16.37
2018-05-17T02:09:36.199Z,19.67
2018-05-17T02:12:03.694Z,13.80
2018-05-17T02:14:31.949Z,17.37
2018-05-17T02:16:59.437Z,23.73
2018-05-17T02:19:26.926Z,22.53
2018-05-17T02:21:54.415Z,24.93
2018-05-17T02:24:22.707Z,26.90
2018-05-17T02:26:50.243Z,29.33
2018-05-17T02:29:17.729Z,23.20
2018-05-17T02:31:45.987Z,28.53
2018-05-17T02:34:13.510Z,24.83
2018-05-17T02:36:40.974Z,32.63
2018-05-17T02:39:08.643Z,35.13
2018-05-17T02:41:36.130Z,34.30
2018-05-17T02:44:04.538Z,34.17
2018-05-17T02:46:32.029Z,35.43
2018-05-17T02:48:59.525Z,33.53
2018-05-17T02:51:27.782Z,25.43
2018-05-17T02:53:55.840Z,33.90
2018-05-17T02:56:23.326Z,31.27
2018-05-17T02:58:51.590Z,32.43
2018-05-17T03:01:19.205Z,37.60
2018-05-17T03:03:46.694Z,37.93
2018-05-17T03:06:14.181Z,40.57
2018-05-17T03:08:42.538Z,34.50
2018-05-17T03:11:10.005Z,31.17
2018-05-17T03:13:37.482Z,24.40
2018-05-17T03:16:05.746Z,35.63
2018-05-17T03:18:33.231Z,36.47
2018-05-17T03:21:01.542Z,36.80
2018-05-17T03:23:29.359Z,40.33
2018-05-17T03:25:57.636Z,35.97
2018-05-17T03:28:25.137Z,36.13
2018-05-17T03:30:52.637Z,30.60
2018-05-17T03:33:20.270Z,29.87
2018-05-17T03:35:47.770Z,24.50
2018-05-17T03:38:16.029Z,23.83
2018-05-17T03:40:43.680Z,34.80
2018-05-17T03:43:11.166Z,31.57
2018-05-17T03:45:39.412Z,22.83
2018-05-17T03:48:06.899Z,27.30
2018-05-17T03:50:35.660Z,30.60
2018-05-17T03:53:03.220Z,30.57
2018-05-17T03:55:30.874Z,31.63
2018-05-17T03:57:58.353Z,31.33
2018-05-17T04:00:26.617Z,26.57
2018-05-17T04:03:06.096Z,15.70
2018-05-17T04:05:45.135Z,29.17
2018-05-17T04:08:12.759Z,21.57
2018-05-17T04:10:41.775Z,23.80
2018-05-17T04:13:10.030Z,19.10
2018-05-17T04:15:39.059Z,28.20
2018-05-17T04:18:07.818Z,19.13
2018-05-17T04:20:36.203Z,28.50
2018-05-17T04:23:04.470Z,27.60
2018-05-17T04:25:31.946Z,23.77
2018-05-17T04:28:00.712Z,21.70
2018-05-17T04:30:28.749Z,12.03
2018-05-17T04:32:56.221Z,24.00
2018-05-17T04:35:23.698Z,13.77
2018-05-17T04:37:51.962Z,22.67
2018-05-17T04:40:19.450Z,19.93
2018-05-17T04:42:46.919Z,14.10
2018-05-17T04:45:14.899Z,14.53
2018-05-17T04:47:42.549Z,8.73
2018-05-17T04:50:10.797Z,16.83
2018-05-17T04:52:38.264Z,16.93
2018-05-17T04:55:05.752Z,14.63
2018-05-17T04:57:33.241Z,10.73
2018-05-17T05:00:00.720Z,15.53
2018-05-17T05:02:28.210Z,14.17
2018-05-17T05:04:56.453Z,17.93
2018-05-17T05:07:24.444Z,21.43
2018-05-17T05:09:52.795Z,23.43
2018-05-17T05:12:20.281Z,28.73
2018-05-17T05:14:48.533Z,20.33
2018-05-17T05:17:16.009Z,29.47
2018-05-17T05:19:44.356Z,30.60
2018-05-17T05:22:11.841Z,29.53
2018-05-17T05:24:39.337Z,32.63
2018-05-17T05:27:06.824Z,36.77
2018-05-17T05:29:34.375Z,28.93
2018-05-17T05:32:01.897Z,34.17
2018-05-17T05:34:30.146Z,37.43
2018-05-17T05:36:58.105Z,22.60
2018-05-17T05:39:25.634Z,18.67
2018-05-17T05:41:53.109Z,37.50
2018-05-17T05:44:20.627Z,38.80
2018-05-17T05:46:48.230Z,24.07
2018-05-17T05:49:15.733Z,32.57
2018-05-17T05:51:43.200Z,28.30
2018-05-17T05:54:10.675Z,35.73
2018-05-17T05:56:38.194Z,35.93
2018-05-17T05:59:06.481Z,22.37
2018-05-17T06:01:34.736Z,25.70
2018-05-17T06:04:04.007Z,33.30
2018-05-17T06:06:31.506Z,30.33
2018-05-17T06:08:59.762Z,19.60
2018-05-17T06:11:27.243Z,37.57
2018-05-17T06:13:55.990Z,30.60
2018-05-17T06:16:23.492Z,18.20
2018-05-17T06:18:51.753Z,18.90
2018-05-17T06:21:20.009Z,25.50
2018-05-17T06:23:48.056Z,37.07
2018-05-17T06:26:15.493Z,39.03
2018-05-17T06:28:43.127Z,40.07
2018-05-17T06:31:11.395Z,42.00
2018-05-17T06:33:39.087Z,37.50
2018-05-17T06:36:06.565Z,33.93
2018-05-17T06:38:34.055Z,36.37
2018-05-17T06:41:01.634Z,40.40
2018-05-17T06:43:30.053Z,39.17
2018-05-17T06:45:57.553Z,37.43
2018-05-17T06:48:25.100Z,34.07
2018-05-17T06:50:52.874Z,34.03
2018-05-17T06:53:20.362Z,39.63
2018-05-17T06:55:48.675Z,35.17
2018-05-17T06:58:16.282Z,30.07
2018-05-17T07:00:43.826Z,25.70
2018-05-17T07:03:11.422Z,28.57
2018-05-17T07:05:39.701Z,35.37
2018-05-17T07:08:07.957Z,24.07
2018-05-17T07:10:37.048Z,38.10
2018-05-17T07:13:06.127Z,32.30
2018-05-17T07:15:33.620Z,33.57
2018-05-17T07:18:01.905Z,33.03
2018-05-17T07:20:30.854Z,32.87
2018-05-17T07:22:58.362Z,32.90
2018-05-17T07:25:25.865Z,36.93
2018-05-17T07:27:53.341Z,36.63
2018-05-17T07:30:21.822Z,28.97
2018-05-17T07:32:49.291Z,32.40
2018-05-17T07:35:16.956Z,32.47
2018-05-17T07:37:45.242Z,34.03
2018-05-17T07:40:13.497Z,21.77
2018-05-17T07:42:41.816Z,29.40
2018-05-17T07:45:09.294Z,30.17
2018-05-17T07:47:37.712Z,26.70
2018-05-17T07:50:06.039Z,18.53
2018-05-17T07:52:33.502Z,21.67
2018-05-17T07:55:00.982Z,23.60
2018-05-17T07:57:28.648Z,20.03
2018-05-17T07:59:56.147Z,20.83
2018-05-17T08:02:24.397Z,20.83
2018-05-17T08:04:51.925Z,16.50
2018-05-17T08:07:19.456Z,22.67
2018-05-17T08:09:47.224Z,15.80
2018-05-17T08:12:14.809Z,23.90
2018-05-17T08:14:42.357Z,22.63
2018-05-17T08:17:10.014Z,22.97
2018-05-17T08:19:37.521Z,22.53
2018-05-17T08:22:05.001Z,22.87
2018-05-17T08:24:34.276Z,25.53
2018-05-17T08:27:01.888Z,27.03
2018-05-17T08:29:29.377Z,27.07
2018-05-17T08:31:57.078Z,22.37
2018-05-17T08:34:25.343Z,29.50
2018-05-17T08:36:53.650Z,23.77
2018-05-17T08:39:21.140Z,31.90
2018-05-17T08:41:48.631Z,25.90
2018-05-17T08:44:16.895Z,34.37
2018-05-17T08:46:44.391Z,35.77
2018-05-17T08:49:12.703Z,42.53
2018-05-17T08:51:40.307Z,34.00
2018-05-17T08:54:07.790Z,34.87
2018-05-17T08:56:35.266Z,36.77
2018-05-17T08:59:02.776Z,26.63
2018-05-17T09:01:31.787Z,36.47
2018-05-17T09:04:00.121Z,31.53
2018-05-17T09:06:27.615Z,41.13
2018-05-17T09:08:55.898Z,41.70
2018-05-17T09:11:24.169Z,33.67
2018-05-17T09:13:52.463Z,37.73
2018-05-17T09:16:20.726Z,41.47
2018-05-17T09:18:49.221Z,39.90
2018-05-17T09:21:16.725Z,38.80
2018-05-17T09:23:44.236Z,32.60
2018-05-17T09:26:12.529Z,36.33
2018-05-17T09:28:40.037Z,35.87
2018-05-17T09:31:07.590Z,31.07
2018-05-17T09:33:35.064Z,35.80
2018-05-17T09:36:02.550Z,29.70
2018-05-17T09:38:30.031Z,35.77
2018-05-17T09:40:57.610Z,27.53
2018-05-17T09:43:25.098Z,33.87
2018-05-17T09:45:52.577Z,30.57
2018-05-17T09:48:20.101Z,35.00
2018-05-17T09:50:47.595Z,34.50
2018-05-17T09:53:15.212Z,41.00
2018-05-17T09:55:42.753Z,34.47
2018-05-17T09:58:10.356Z,32.93
2018-05-17T10:00:44.407Z,33.23
2018-05-17T10:03:11.907Z,16.57
2018-05-17T10:05:40.186Z,33.90
2018-05-17T10:08:08.177Z,33.57
2018-05-17T10:10:36.433Z,20.63
2018-05-17T10:13:05.530Z,33.33
2018-05-17T10:15:33.867Z,31.07
2018-05-17T10:18:01.279Z,41.53
2018-05-17T10:20:29.537Z,28.77
2018-05-17T10:22:57.100Z,33.13
2018-05-17T10:25:25.373Z,31.27
2018-05-17T10:27:52.869Z,33.13
2018-05-17T10:30:21.234Z,35.53
2018-05-17T10:32:49.625Z,34.07
2018-05-17T10:35:18.058Z,29.60
2018-05-17T10:37:45.528Z,32.83
2018-05-17T10:40:14.976Z,29.20
2018-05-17T10:42:42.459Z,29.47
2018-05-17T10:45:09.964Z,35.20
2018-05-17T10:47:38.240Z,26.83
2018-05-17T10:50:06.504Z,33.00
2018-05-17T10:52:34.016Z,29.97
2018-05-17T10:55:01.519Z,34.03
2018-05-17T10:57:29.001Z,35.63
2018-05-17T10:59:57.254Z,21.93
2018-05-17T11:02:24.749Z,30.87
2018-05-17T11:04:53.000Z,33.80
2018-05-17T11:07:21.360Z,30.93
2018-05-17T11:09:48.876Z,33.73
2018-05-17T11:12:16.485Z,33.00
2018-05-17T11:14:44.089Z,26.43
2018-05-17T11:17:11.578Z,34.23
2018-05-17T11:19:39.100Z,28.57
2018-05-17T11:22:06.631Z,28.90
2018-05-17T11:24:34.194Z,34.63
2018-05-17T11:27:02.444Z,29.30
2018-05-17T11:29:29.930Z,27.40
2018-05-17T11:31:58.667Z,15.47
2018-05-17T11:34:26.159Z,30.60
2018-05-17T11:36:54.463Z,29.93
2018-05-17T11:39:21.946Z,31.23
2018-05-17T11:41:49.420Z,28.47
2018-05-17T11:44:16.969Z,30.70
2018-05-17T11:46:44.469Z,29.63
2018-05-17T11:49:11.970Z,29.47
2018-05-17T11:51:39.840Z,30.30
2018-05-17T11:54:07.349Z,33.13
2018-05-17T11:56:36.433Z,28.60
2018-05-17T11:59:03.938Z,25.70
2018-05-17T12:01:31.493Z,33.27
2018-05-17T12:03:59.101Z,29.70
2018-05-17T12:06:26.568Z,28.97
2018-05-17T12:08:54.084Z,34.23
2018-05-17T12:11:21.587Z,27.13
2018-05-17T12:13:49.071Z,33.77
2018-05-17T12:16:17.399Z,35.80
2018-05-17T12:18:45.824Z,27.43
2018-05-17T12:21:14.127Z,36.80
2018-05-17T12:23:41.614Z,27.00
2018-05-17T12:26:09.168Z,32.60
2018-05-17T12:28:36.653Z,30.73
2018-05-17T12:31:04.295Z,27.80
2018-05-17T12:33:31.763Z,27.87
2018-05-17T12:35:59.458Z,27.03
2018-05-17T12:38:27.913Z,29.43
2018-05-17T12:40:55.565Z,28.10
2018-05-17T12:43:23.080Z,26.67
2018-05-17T12:45:51.494Z,25.20
2018-05-17T12:48:18.968Z,29.17
2018-05-17T12:50:46.475Z,26.40
2018-05-17T12:53:14.760Z,26.30
2018-05-17T12:55:42.237Z,22.33
2018-05-17T12:58:09.758Z,27.43
2018-05-17T13:00:37.314Z,25.23
2018-05-17T13:03:05.682Z,21.33
2018-05-17T13:05:33.300Z,26.33
2018-05-17T13:08:00.770Z,28.27
2018-05-17T13:10:28.333Z,25.60
2018-05-17T13:12:55.943Z,25.87
2018-05-17T13:15:24.152Z,29.50
2018-05-17T13:17:52.601Z,23.67
2018-05-17T13:20:20.125Z,24.63
2018-05-17T13:22:48.596Z,25.60
2018-05-17T13:25:16.857Z,22.43
2018-05-17T13:27:44.353Z,17.00
2018-05-17T13:30:13.360Z,21.57
2018-05-17T13:32:40.761Z,24.70
2018-05-17T13:35:08.239Z,24.03
2018-05-17T13:37:37.296Z,23.20
2018-05-17T13:40:04.779Z,25.23
2018-05-17T13:42:32.366Z,26.03
2018-05-17T13:44:59.851Z,25.07
2018-05-17T13:47:28.291Z,23.30
2018-05-17T13:49:55.818Z,21.20
2018-05-17T13:52:23.437Z,19.87
2018-05-17T13:54:51.667Z,22.00
2018-05-17T13:57:20.210Z,19.87
2018-05-17T13:59:47.943Z,10.70
2018-05-17T14:02:15.487Z,24.80
2018-05-17T14:04:43.958Z,24.90
2018-05-17T14:07:11.446Z,27.63
2018-05-17T14:09:39.748Z,18.57
2018-05-17T14:12:07.229Z,24.40
2018-05-17T14:14:34.769Z,25.57
2018-05-17T14:17:02.284Z,24.67
2018-05-17T14:19:29.959Z,24.63
2018-05-17T14:21:57.434Z,23.07
2018-05-17T14:24:25.798Z,23.53
2018-05-17T14:26:54.067Z,22.20
2018-05-17T14:29:21.663Z,17.10
2018-05-17T14:31:49.191Z,24.73
2018-05-17T14:34:16.669Z,21.90
2018-05-17T14:36:45.299Z,21.50
2018-05-17T14:39:13.519Z,21.63
2018-05-17T14:41:41.764Z,19.50
2018-05-17T14:44:09.306Z,21.60
2018-05-17T14:46:36.805Z,15.83
2018-05-17T14:49:05.096Z,21.43
2018-05-17T14:51:33.380Z,18.53
2018-05-17T14:54:00.879Z,17.13
2018-05-17T14:56:28.349Z,21.27
2018-05-17T14:58:55.863Z,18.67
2018-05-17T15:01:23.395Z,26.37
2018-05-17T15:03:52.421Z,17.60
2018-05-17T15:06:19.895Z,20.03
2018-05-17T15:08:47.488Z,23.50
2018-05-17T15:11:15.761Z,26.07
2018-05-17T15:13:43.209Z,17.93
2018-05-17T15:16:10.711Z,21.60
2018-05-17T15:18:38.954Z,21.77
2018-05-17T15:21:06.433Z,23.33
2018-05-17T15:23:34.720Z,25.07
2018-05-17T15:26:02.201Z,22.50
2018-05-17T15:28:29.679Z,24.33
2018-05-17T15:30:57.176Z,9.73
2018-05-17T15:33:25.431Z,16.80
2018-05-17T15:35:52.910Z,20.83
2018-05-17T15:38:21.189Z,19.57
2018-05-17T15:40:49.464Z,22.63
2018-05-17T15:43:17.702Z,17.60
2018-05-17T15:45:45.267Z,19.90
2018-05-17T15:48:12.897Z,16.13
2018-05-17T15:50:40.914Z,16.73
2018-05-17T15:53:08.409Z,19.40
2018-05-17T15:55:36.669Z,14.40
2018-05-17T15:58:04.973Z,13.47
2018-05-17T16:00:32.482Z,14.33
2018-05-17T16:02:59.997Z,20.00
2018-05-17T16:05:27.559Z,18.70
2018-05-17T16:07:55.067Z,16.37
2018-05-17T16:10:22.629Z,21.10
2018-05-17T16:12:50.103Z,12.87
2018-05-17T16:15:17.959Z,16.47
2018-05-17T16:17:45.352Z,15.83
2018-05-17T16:20:12.833Z,18.93
2018-05-17T16:22:40.327Z,15.70
2018-05-17T16:25:08.602Z,13.07
2018-05-17T16:27:36.882Z,11.77
2018-05-17T16:30:04.465Z,18.27
2018-05-17T16:32:31.935Z,9.60
2018-05-17T16:34:59.416Z,15.70
2018-05-17T16:37:26.902Z,13.60
2018-05-17T16:39:55.055Z,17.67
2018-05-17T16:42:23.207Z,14.77
2018-05-17T16:44:50.683Z,13.23
2018-05-17T16:47:18.195Z,17.43
2018-05-17T16:49:45.692Z,13.47
2018-05-17T16:52:13.973Z,18.97
2018-05-17T16:54:41.459Z,15.30
2018-05-17T16:57:08.942Z,17.77
2018-05-17T16:59:36.426Z,10.93
2018-05-17T17:02:03.972Z,19.13
2018-05-17T17:04:31.420Z,14.07
2018-05-17T17:06:58.990Z,14.60
2018-05-17T17:09:27.250Z,13.53
2018-05-17T17:11:54.750Z,12.60
2018-05-17T17:14:22.259Z,17.23
2018-05-17T17:16:50.521Z,24.30
2018-05-17T17:19:18.042Z,16.23
2018-05-17T17:21:46.461Z,24.70
2018-05-17T17:24:14.760Z,15.63
2018-05-17T17:26:42.981Z,14.33
2018-05-17T17:29:10.464Z,15.10
2018-05-17T17:31:37.948Z,14.80
2018-05-17T17:34:06.203Z,13.57
2018-05-17T17:36:33.684Z,12.10
2018-05-17T17:39:01.260Z,9.57
2018-05-17T17:41:28.673Z,12.43
2018-05-17T17:43:56.286Z,11.93
2018-05-17T17:46:23.773Z,16.70
2018-05-17T17:48:51.326Z,12.17
2018-05-17T17:51:18.826Z,9.50
2018-05-17T17:53:47.085Z,7.33
2018-05-17T17:56:14.564Z,9.93
2018-05-17T17:58:43.454Z,12.90
2018-05-17T18:01:11.725Z,13.37
2018-05-17T18:03:39.987Z,8.57
2018-05-17T18:06:07.468Z,9.47
2018-05-17T18:08:35.175Z,6.60
2018-05-17T18:11:02.690Z,5.57
2018-05-17T18:13:30.948Z,10.87
2018-05-17T18:15:59.238Z,10.30
2018-05-17T18:18:27.485Z,11.80
2018-05-17T18:20:54.956Z,10.10
2018-05-17T18:23:23.203Z,13.27
2018-05-17T18:25:50.744Z,10.13
2018-05-17T18:28:18.242Z,11.37
2018-05-17T18:30:45.758Z,18.10
2018-05-17T18:33:13.234Z,8.90
2018-05-17T18:35:40.738Z,9.63
2018-05-17T18:38:08.999Z,21.90
2018-05-17T18:40:36.458Z,18.20
2018-05-17T18:43:04.783Z,15.00
2018-05-17T18:45:32.979Z,12.20
2018-05-17T18:48:00.463Z,17.80
2018-05-17T18:50:27.958Z,9.43
2018-05-17T18:52:55.632Z,18.70
2018-05-17T18:55:23.141Z,27.77
2018-05-17T18:57:50.597Z,14.27
2018-05-17T19:00:18.988Z,18.27
2018-05-17T19:02:47.354Z,19.20
2018-05-17T19:05:14.872Z,13.80
2018-05-17T19:07:42.366Z,12.00
2018-05-17T19:10:09.856Z,10.37
2018-05-17T19:12:37.355Z,10.73
2018-05-17T19:15:04.870Z,12.80
2018-05-17T19:17:33.173Z,16.30
2018-05-17T19:20:00.724Z,17.00
2018-05-17T19:22:28.240Z,28.47
2018-05-17T19:24:55.773Z,26.73
2018-05-17T19:27:23.262Z,18.20
2018-05-17T19:29:50.762Z,24.00
2018-05-17T19:32:18.221Z,17.63
2018-05-17T19:34:46.231Z,7.97
2018-05-17T19:37:13.746Z,10.33
2018-05-17T19:39:41.979Z,26.57
2018-05-17T19:42:09.498Z,20.13
2018-05-17T19:44:36.978Z,14.70
2018-05-17T19:47:04.711Z,12.07
2018-05-17T19:49:32.229Z,14.60
2018-05-17T19:52:00.585Z,10.83
2018-05-17T19:54:28.059Z,14.03
2018-05-17T19:56:56.337Z,12.03
2018-05-17T19:59:24.690Z,15.03
2018-05-17T20:01:52.188Z,13.93
2018-05-17T20:04:19.723Z,10.83
2018-05-17T20:06:47.990Z,14.40
2018-05-17T20:09:16.365Z,12.03
2018-05-17T20:11:43.855Z,10.40
2018-05-17T20:14:12.102Z,11.53
2018-05-17T20:16:40.374Z,10.33
2018-05-17T20:19:09.366Z,11.40
2018-05-17T20:21:37.618Z,14.87
2018-05-17T20:24:05.086Z,13.40
2018-05-17T20:26:32.597Z,22.37
2018-05-17T20:29:00.079Z,13.13
2018-05-17T20:31:27.586Z,16.13
2018-05-17T20:33:55.062Z,11.70
2018-05-17T20:36:23.331Z,15.30
2018-05-17T20:38:51.588Z,22.30
2018-05-17T20:41:19.069Z,19.57
2018-05-17T20:43:47.325Z,17.33
2018-05-17T20:46:15.810Z,16.60
2018-05-17T20:48:43.293Z,15.80
2018-05-17T20:51:10.801Z,10.43
2018-05-17T20:53:38.292Z,27.17
2018-05-17T20:56:06.541Z,24.70
2018-05-17T20:58:34.039Z,13.73
2018-05-17T21:01:01.525Z,13.47
2018-05-17T21:03:33.120Z,11.07
2018-05-17T21:06:00.630Z,13.63
2018-05-17T21:08:28.160Z,10.03
2018-05-17T21:10:56.409Z,9.63
2018-05-17T21:13:23.901Z,10.03
2018-05-17T21:15:52.161Z,10.53
2018-05-17T21:18:19.621Z,7.47
2018-05-17T21:20:47.857Z,10.73
2018-05-17T21:23:15.332Z,11.40
2018-05-17T21:25:42.832Z,10.73
2018-05-17T21:28:11.094Z,19.30
2018-05-17T21:30:39.325Z,12.60
2018-05-17T21:33:06.835Z,12.80
2018-05-17T21:35:35.113Z,11.87
2018-05-17T21:38:03.359Z,12.63
2018-05-17T21:40:30.825Z,10.17
2018-05-17T21:42:59.458Z,8.33
2018-05-17T21:45:26.919Z,27.40
2018-05-17T21:47:54.405Z,14.67
2018-05-17T21:50:21.886Z,15.37
2018-05-17T21:52:50.153Z,14.83
2018-05-17T21:55:17.684Z,11.40
2018-05-17T21:57:45.163Z,15.63
2018-05-17T22:00:12.687Z,9.73
2018-05-17T22:02:40.176Z,21.37
2018-05-17T22:05:07.732Z,13.83
2018-05-17T22:07:35.234Z,19.60
2018-05-17T22:10:03.452Z,13.30
2018-05-17T22:12:30.933Z,16.83
2018-05-17T22:17:32.323Z,17.77
2018-05-17T22:20:00.558Z,10.80
2018-05-17T22:22:28.045Z,12.80
2018-05-17T22:24:56.274Z,12.60
2018-05-17T22:27:23.877Z,24.53
2018-05-17T22:29:51.346Z,16.70
2018-05-17T22:32:19.602Z,11.00
2018-05-17T22:34:47.869Z,11.73
2018-05-17T22:37:15.326Z,11.47
2018-05-17T22:39:42.810Z,11.40
2018-05-17T22:42:11.068Z,23.47
2018-05-17T22:44:38.577Z,11.90
2018-05-17T22:47:06.054Z,15.17
2018-05-17T22:49:34.380Z,11.03
2018-05-17T22:52:02.610Z,19.00
2018-05-17T22:54:30.126Z,17.27
2018-05-17T22:57:10.146Z,18.23
2018-05-17T22:59:37.620Z,14.80
2018-05-17T23:02:05.903Z,21.43
2018-05-17T23:04:34.158Z,13.70
2018-05-17T23:07:01.717Z,14.23
2018-05-17T23:09:29.177Z,10.70
2018-05-17T23:11:56.666Z,16.43
2018-05-17T23:14:24.138Z,22.40
2018-05-17T23:16:51.683Z,13.20
2018-05-17T23:19:20.011Z,11.43
2018-05-17T23:21:47.492Z,17.67
2018-05-17T23:24:14.945Z,12.33
2018-05-17T23:26:43.188Z,9.20
2018-05-17T23:29:10.667Z,9.47
2018-05-17T23:31:38.182Z,15.93
2018-05-17T23:34:05.667Z,19.87
2018-05-17T23:36:33.137Z,11.53
2018-05-17T23:39:00.601Z,14.57
2018-05-17T23:41:35.811Z,16.53
2018-05-17T23:44:03.288Z,13.63
2018-05-17T23:46:30.851Z,21.23
2018-05-17T23:48:58.417Z,24.67
2018-05-17T23:51:25.892Z,26.93
2018-05-17T23:53:53.370Z,15.03
2018-05-17T23:56:20.863Z,10.20
2018-05-17T23:58:49.302Z,12.00
